sensor_id;sensor_type;location;lat;lon;timestamp;temperature;humidity
11908;DHT22;6014;47.690;9.130;2023-09-07T00:02:15;15.60;99.90
11908;DHT22;6014;47.690;9.130;2023-09-07T00:04:54;15.50;99.90
11908;DHT22;6014;47.690;9.130;2023-09-07T00:07:23;15.50;99.90
11908;DHT22;6014;47.690;9.130;2023-09-07T00:09:55;15.40;99.90
11908;DHT22;6014;47.690;9.130;2023-09-07T00:12:23;15.40;99.90
11908;DHT22;6014;47.690;9.130;2023-09-07T00:14:52;15.40;99.90
11908;DHT22;6014;47.690;9.130;2023-09-07T00:17:21;15.40;99.90
11908;DHT22;6014;47.690;9.130;2023-09-07T00:19:51;15.40;99.90
11908;DHT22;6014;47.690;9.130;2023-09-07T00:22:19;15.40;99.90
11908;DHT22;6014;47.690;9.130;2023-09-07T00:24:47;15.30;99.90
11908;DHT22;6014;47.690;9.130;2023-09-07T00:27:18;15.30;99.90
11908;DHT22;6014;47.690;9.130;2023-09-07T00:29:46;15.20;99.90
11908;DHT22;6014;47.690;9.130;2023-09-07T00:32:15;15.20;99.90
11908;DHT22;6014;47.690;9.130;2023-09-07T00:34:44;15.20;99.90
11908;DHT22;6014;47.690;9.130;2023-09-07T00:37:14;15.20;99.90
11908;DHT22;6014;47.690;9.130;2023-09-07T00:39:44;15.10;99.90
11908;DHT22;6014;47.690;9.130;2023-09-07T00:42:21;15.10;99.90
11908;DHT22;6014;47.690;9.130;2023-09-07T00:44:50;14.90;99.90
11908;DHT22;6014;47.690;9.130;2023-09-07T00:47:18;15.00;99.90
11908;DHT22;6014;47.690;9.130;2023-09-07T00:49:47;15.00;99.90
11908;DHT22;6014;47.690;9.130;2023-09-07T00:52:16;15.00;99.90
11908;DHT22;6014;47.690;9.130;2023-09-07T00:54:46;15.10;99.90
11908;DHT22;6014;47.690;9.130;2023-09-07T00:57:14;15.00;99.90
11908;DHT22;6014;47.690;9.130;2023-09-07T00:59:44;15.00;99.90
11908;DHT22;6014;47.690;9.130;2023-09-07T01:02:14;15.00;99.90
11908;DHT22;6014;47.690;9.130;2023-09-07T01:04:43;15.00;99.90
11908;DHT22;6014;47.690;9.130;2023-09-07T01:07:16;14.90;99.90
11908;DHT22;6014;47.690;9.130;2023-09-07T01:09:48;14.90;99.90
11908;DHT22;6014;47.690;9.130;2023-09-07T01:12:19;14.90;99.90
11908;DHT22;6014;47.690;9.130;2023-09-07T01:14:54;14.80;99.90
11908;DHT22;6014;47.690;9.130;2023-09-07T01:17:22;14.80;99.90
11908;DHT22;6014;47.690;9.130;2023-09-07T01:19:52;14.80;99.90
11908;DHT22;6014;47.690;9.130;2023-09-07T01:22:23;14.80;99.90
11908;DHT22;6014;47.690;9.130;2023-09-07T01:24:52;14.70;99.90
11908;DHT22;6014;47.690;9.130;2023-09-07T01:27:21;14.70;99.90
11908;DHT22;6014;47.690;9.130;2023-09-07T01:29:51;14.70;99.90
11908;DHT22;6014;47.690;9.130;2023-09-07T01:32:21;14.70;99.90
11908;DHT22;6014;47.690;9.130;2023-09-07T01:34:55;14.70;99.90
11908;DHT22;6014;47.690;9.130;2023-09-07T01:37:30;14.60;99.90
11908;DHT22;6014;47.690;9.130;2023-09-07T01:39:59;14.60;99.90
11908;DHT22;6014;47.690;9.130;2023-09-07T01:42:27;14.60;99.90
11908;DHT22;6014;47.690;9.130;2023-09-07T01:44:57;14.60;99.90
11908;DHT22;6014;47.690;9.130;2023-09-07T01:47:25;14.50;99.90
11908;DHT22;6014;47.690;9.130;2023-09-07T01:49:54;14.50;99.90
11908;DHT22;6014;47.690;9.130;2023-09-07T01:52:23;14.50;99.90
11908;DHT22;6014;47.690;9.130;2023-09-07T01:54:55;14.50;99.90
11908;DHT22;6014;47.690;9.130;2023-09-07T01:57:24;14.40;99.90
11908;DHT22;6014;47.690;9.130;2023-09-07T01:59:53;14.40;99.90
11908;DHT22;6014;47.690;9.130;2023-09-07T02:02:21;14.40;99.90
11908;DHT22;6014;47.690;9.130;2023-09-07T02:04:52;14.40;99.90
11908;DHT22;6014;47.690;9.130;2023-09-07T02:07:24;14.40;99.90
11908;DHT22;6014;47.690;9.130;2023-09-07T02:09:54;14.30;99.90
11908;DHT22;6014;47.690;9.130;2023-09-07T02:12:25;14.30;99.90
11908;DHT22;6014;47.690;9.130;2023-09-07T02:14:55;14.30;99.90
11908;DHT22;6014;47.690;9.130;2023-09-07T02:17:24;14.30;99.90
11908;DHT22;6014;47.690;9.130;2023-09-07T02:19:54;14.20;99.90
11908;DHT22;6014;47.690;9.130;2023-09-07T02:22:22;14.20;99.90
11908;DHT22;6014;47.690;9.130;2023-09-07T02:24:50;14.30;99.90
11908;DHT22;6014;47.690;9.130;2023-09-07T02:27:21;14.30;99.90
11908;DHT22;6014;47.690;9.130;2023-09-07T02:29:49;14.30;99.90
11908;DHT22;6014;47.690;9.130;2023-09-07T02:32:19;14.30;99.90
11908;DHT22;6014;47.690;9.130;2023-09-07T02:34:47;14.20;99.90
11908;DHT22;6014;47.690;9.130;2023-09-07T02:37:18;14.20;99.90
11908;DHT22;6014;47.690;9.130;2023-09-07T02:39:46;14.20;99.90
11908;DHT22;6014;47.690;9.130;2023-09-07T02:42:15;14.20;99.90
11908;DHT22;6014;47.690;9.130;2023-09-07T02:44:46;14.10;99.90
11908;DHT22;6014;47.690;9.130;2023-09-07T02:47:17;14.10;99.90
11908;DHT22;6014;47.690;9.130;2023-09-07T02:49:46;14.00;99.90
11908;DHT22;6014;47.690;9.130;2023-09-07T02:52:15;14.10;99.90
11908;DHT22;6014;47.690;9.130;2023-09-07T02:54:45;14.10;99.90
11908;DHT22;6014;47.690;9.130;2023-09-07T02:57:13;14.10;99.90
11908;DHT22;6014;47.690;9.130;2023-09-07T02:59:41;14.00;99.90
11908;DHT22;6014;47.690;9.130;2023-09-07T03:02:11;14.00;99.90
11908;DHT22;6014;47.690;9.130;2023-09-07T03:04:40;14.00;99.90
11908;DHT22;6014;47.690;9.130;2023-09-07T03:07:08;14.00;99.90
11908;DHT22;6014;47.690;9.130;2023-09-07T03:09:38;14.00;99.90
11908;DHT22;6014;47.690;9.130;2023-09-07T03:12:07;14.00;99.90
11908;DHT22;6014;47.690;9.130;2023-09-07T03:14:42;14.10;99.90
11908;DHT22;6014;47.690;9.130;2023-09-07T03:17:15;14.00;99.90
11908;DHT22;6014;47.690;9.130;2023-09-07T03:19:44;14.00;99.90
11908;DHT22;6014;47.690;9.130;2023-09-07T03:22:13;14.00;99.90
11908;DHT22;6014;47.690;9.130;2023-09-07T03:24:41;13.90;99.90
11908;DHT22;6014;47.690;9.130;2023-09-07T03:27:10;13.90;99.90
11908;DHT22;6014;47.690;9.130;2023-09-07T03:29:40;13.80;99.90
11908;DHT22;6014;47.690;9.130;2023-09-07T03:32:08;13.90;99.90
11908;DHT22;6014;47.690;9.130;2023-09-07T03:34:41;14.00;99.90
11908;DHT22;6014;47.690;9.130;2023-09-07T03:37:09;13.90;99.90
11908;DHT22;6014;47.690;9.130;2023-09-07T03:39:38;13.90;99.90
11908;DHT22;6014;47.690;9.130;2023-09-07T03:42:07;13.90;99.90
11908;DHT22;6014;47.690;9.130;2023-09-07T03:44:35;13.90;99.90
11908;DHT22;6014;47.690;9.130;2023-09-07T03:47:06;13.80;99.90
11908;DHT22;6014;47.690;9.130;2023-09-07T03:49:36;13.80;99.90
11908;DHT22;6014;47.690;9.130;2023-09-07T03:52:08;13.80;99.90
11908;DHT22;6014;47.690;9.130;2023-09-07T03:54:38;13.90;99.90
11908;DHT22;6014;47.690;9.130;2023-09-07T03:57:07;13.80;99.90
11908;DHT22;6014;47.690;9.130;2023-09-07T03:59:35;13.80;99.90
11908;DHT22;6014;47.690;9.130;2023-09-07T04:02:04;13.70;99.90
11908;DHT22;6014;47.690;9.130;2023-09-07T04:04:33;13.70;99.90
11908;DHT22;6014;47.690;9.130;2023-09-07T04:07:02;13.60;99.90
11908;DHT22;6014;47.690;9.130;2023-09-07T04:09:32;13.60;99.90
11908;DHT22;6014;47.690;9.130;2023-09-07T04:12:01;13.60;99.90
11908;DHT22;6014;47.690;9.130;2023-09-07T04:14:30;13.60;99.90
11908;DHT22;6014;47.690;9.130;2023-09-07T04:16:59;13.60;99.90
11908;DHT22;6014;47.690;9.130;2023-09-07T04:19:34;13.60;99.90
11908;DHT22;6014;47.690;9.130;2023-09-07T04:22:05;13.50;99.90
11908;DHT22;6014;47.690;9.130;2023-09-07T04:24:38;13.50;99.90
11908;DHT22;6014;47.690;9.130;2023-09-07T04:27:06;13.50;99.90
11908;DHT22;6014;47.690;9.130;2023-09-07T04:29:35;13.40;99.90
11908;DHT22;6014;47.690;9.130;2023-09-07T04:32:04;13.30;99.90
11908;DHT22;6014;47.690;9.130;2023-09-07T04:34:34;13.30;99.90
11908;DHT22;6014;47.690;9.130;2023-09-07T04:37:05;13.20;99.90
11908;DHT22;6014;47.690;9.130;2023-09-07T04:39:40;13.20;99.90
11908;DHT22;6014;47.690;9.130;2023-09-07T04:42:09;13.20;99.90
11908;DHT22;6014;47.690;9.130;2023-09-07T04:44:39;13.30;99.90
11908;DHT22;6014;47.690;9.130;2023-09-07T04:47:08;13.40;99.90
11908;DHT22;6014;47.690;9.130;2023-09-07T04:49:37;13.40;99.90
11908;DHT22;6014;47.690;9.130;2023-09-07T04:52:05;13.40;99.90
11908;DHT22;6014;47.690;9.130;2023-09-07T04:54:38;13.40;99.90
11908;DHT22;6014;47.690;9.130;2023-09-07T04:57:07;13.40;99.90
11908;DHT22;6014;47.690;9.130;2023-09-07T04:59:37;13.40;99.90
11908;DHT22;6014;47.690;9.130;2023-09-07T05:02:05;13.40;99.90
11908;DHT22;6014;47.690;9.130;2023-09-07T05:04:34;13.20;99.90
11908;DHT22;6014;47.690;9.130;2023-09-07T05:07:02;13.40;99.90
11908;DHT22;6014;47.690;9.130;2023-09-07T05:09:31;13.30;99.90
11908;DHT22;6014;47.690;9.130;2023-09-07T05:12:00;13.40;99.90
11908;DHT22;6014;47.690;9.130;2023-09-07T05:14:30;13.30;99.90
11908;DHT22;6014;47.690;9.130;2023-09-07T05:16:58;13.40;99.90
11908;DHT22;6014;47.690;9.130;2023-09-07T05:19:28;13.30;99.90
11908;DHT22;6014;47.690;9.130;2023-09-07T05:21:57;13.30;99.90
11908;DHT22;6014;47.690;9.130;2023-09-07T05:24:26;13.40;99.90
11908;DHT22;6014;47.690;9.130;2023-09-07T05:26:56;13.40;99.90
11908;DHT22;6014;47.690;9.130;2023-09-07T05:29:28;13.50;99.90
11908;DHT22;6014;47.690;9.130;2023-09-07T05:31:57;13.60;99.90
11908;DHT22;6014;47.690;9.130;2023-09-07T05:34:29;13.70;99.90
11908;DHT22;6014;47.690;9.130;2023-09-07T05:36:57;13.80;99.90
11908;DHT22;6014;47.690;9.130;2023-09-07T05:39:26;13.90;99.90
11908;DHT22;6014;47.690;9.130;2023-09-07T05:41:56;14.00;99.90
11908;DHT22;6014;47.690;9.130;2023-09-07T05:44:24;14.00;99.90
11908;DHT22;6014;47.690;9.130;2023-09-07T05:46:55;14.00;99.90
11908;DHT22;6014;47.690;9.130;2023-09-07T05:49:27;14.10;99.90
11908;DHT22;6014;47.690;9.130;2023-09-07T05:51:55;14.20;99.90
11908;DHT22;6014;47.690;9.130;2023-09-07T05:54:25;14.50;99.90
11908;DHT22;6014;47.690;9.130;2023-09-07T05:56:57;14.50;99.90
11908;DHT22;6014;47.690;9.130;2023-09-07T05:59:25;14.60;99.90
11908;DHT22;6014;47.690;9.130;2023-09-07T06:01:57;14.80;99.90
11908;DHT22;6014;47.690;9.130;2023-09-07T06:04:26;14.90;99.90
11908;DHT22;6014;47.690;9.130;2023-09-07T06:06:55;15.10;99.90
11908;DHT22;6014;47.690;9.130;2023-09-07T06:09:25;15.20;99.90
11908;DHT22;6014;47.690;9.130;2023-09-07T06:11:55;15.40;99.90
11908;DHT22;6014;47.690;9.130;2023-09-07T06:14:24;15.60;99.90
11908;DHT22;6014;47.690;9.130;2023-09-07T06:16:54;15.80;99.90
11908;DHT22;6014;47.690;9.130;2023-09-07T06:19:26;15.90;99.90
11908;DHT22;6014;47.690;9.130;2023-09-07T06:21:56;16.10;99.90
11908;DHT22;6014;47.690;9.130;2023-09-07T06:24:25;16.30;99.90
11908;DHT22;6014;47.690;9.130;2023-09-07T06:26:53;16.40;99.90
11908;DHT22;6014;47.690;9.130;2023-09-07T06:29:21;16.60;99.90
11908;DHT22;6014;47.690;9.130;2023-09-07T06:31:50;16.80;99.90
11908;DHT22;6014;47.690;9.130;2023-09-07T06:34:19;17.30;99.90
11908;DHT22;6014;47.690;9.130;2023-09-07T06:36:50;17.90;99.90
11908;DHT22;6014;47.690;9.130;2023-09-07T06:39:19;18.30;99.90
11908;DHT22;6014;47.690;9.130;2023-09-07T06:41:49;18.90;99.90
11908;DHT22;6014;47.690;9.130;2023-09-07T06:44:19;19.20;99.90
11908;DHT22;6014;47.690;9.130;2023-09-07T06:46:50;19.60;99.90
11908;DHT22;6014;47.690;9.130;2023-09-07T06:49:19;19.80;99.90
11908;DHT22;6014;47.690;9.130;2023-09-07T06:51:51;20.10;99.90
11908;DHT22;6014;47.690;9.130;2023-09-07T06:54:20;20.40;99.90
11908;DHT22;6014;47.690;9.130;2023-09-07T06:56:48;20.50;99.90
11908;DHT22;6014;47.690;9.130;2023-09-07T06:59:17;20.70;99.90
11908;DHT22;6014;47.690;9.130;2023-09-07T07:01:46;20.50;99.90
11908;DHT22;6014;47.690;9.130;2023-09-07T07:04:14;20.30;99.90
11908;DHT22;6014;47.690;9.130;2023-09-07T07:06:43;20.30;99.90
11908;DHT22;6014;47.690;9.130;2023-09-07T07:09:14;20.60;99.90
11908;DHT22;6014;47.690;9.130;2023-09-07T07:11:43;20.50;99.90
11908;DHT22;6014;47.690;9.130;2023-09-07T07:14:12;20.80;99.90
11908;DHT22;6014;47.690;9.130;2023-09-07T07:16:40;21.00;99.90
11908;DHT22;6014;47.690;9.130;2023-09-07T07:19:14;21.30;99.90
11908;DHT22;6014;47.690;9.130;2023-09-07T07:21:43;21.60;99.90
11908;DHT22;6014;47.690;9.130;2023-09-07T07:24:19;21.80;99.90
11908;DHT22;6014;47.690;9.130;2023-09-07T07:26:48;22.10;99.90
11908;DHT22;6014;47.690;9.130;2023-09-07T07:29:16;22.30;99.90
11908;DHT22;6014;47.690;9.130;2023-09-07T07:31:47;22.20;99.90
11908;DHT22;6014;47.690;9.130;2023-09-07T07:34:17;22.60;99.90
11908;DHT22;6014;47.690;9.130;2023-09-07T07:36:46;22.80;99.90
11908;DHT22;6014;47.690;9.130;2023-09-07T07:39:16;23.20;99.90
11908;DHT22;6014;47.690;9.130;2023-09-07T07:41:44;23.40;99.90
11908;DHT22;6014;47.690;9.130;2023-09-07T07:44:15;23.00;99.90
11908;DHT22;6014;47.690;9.130;2023-09-07T07:46:44;23.20;99.70
11908;DHT22;6014;47.690;9.130;2023-09-07T07:49:14;22.30;99.60
11908;DHT22;6014;47.690;9.130;2023-09-07T07:51:43;22.80;99.90
11908;DHT22;6014;47.690;9.130;2023-09-07T07:54:16;23.00;99.10
11908;DHT22;6014;47.690;9.130;2023-09-07T07:56:45;23.10;99.40
11908;DHT22;6014;47.690;9.130;2023-09-07T07:59:13;22.90;98.30
11908;DHT22;6014;47.690;9.130;2023-09-07T08:01:45;23.20;99.10
11908;DHT22;6014;47.690;9.130;2023-09-07T08:04:15;23.50;99.50
11908;DHT22;6014;47.690;9.130;2023-09-07T08:06:46;22.70;98.10
11908;DHT22;6014;47.690;9.130;2023-09-07T08:09:16;23.00;98.60
11908;DHT22;6014;47.690;9.130;2023-09-07T08:11:45;23.20;97.70
11908;DHT22;6014;47.690;9.130;2023-09-07T08:14:13;23.10;98.00
11908;DHT22;6014;47.690;9.130;2023-09-07T08:16:42;23.50;99.30
11908;DHT22;6014;47.690;9.130;2023-09-07T08:19:11;23.80;98.60
11908;DHT22;6014;47.690;9.130;2023-09-07T08:21:41;24.50;97.00
11908;DHT22;6014;47.690;9.130;2023-09-07T08:24:11;24.60;96.30
11908;DHT22;6014;47.690;9.130;2023-09-07T08:26:41;24.90;95.10
11908;DHT22;6014;47.690;9.130;2023-09-07T08:29:10;25.00;93.30
11908;DHT22;6014;47.690;9.130;2023-09-07T08:31:42;25.20;92.60
11908;DHT22;6014;47.690;9.130;2023-09-07T08:34:12;24.40;93.70
11908;DHT22;6014;47.690;9.130;2023-09-07T08:36:45;24.60;93.20
11908;DHT22;6014;47.690;9.130;2023-09-07T08:39:16;24.80;93.40
11908;DHT22;6014;47.690;9.130;2023-09-07T08:41:47;24.50;93.00
11908;DHT22;6014;47.690;9.130;2023-09-07T08:44:28;24.60;93.30
11908;DHT22;6014;47.690;9.130;2023-09-07T08:46:58;24.10;93.60
11908;DHT22;6014;47.690;9.130;2023-09-07T08:49:29;24.20;93.70
11908;DHT22;6014;47.690;9.130;2023-09-07T08:52:01;24.20;94.00
11908;DHT22;6014;47.690;9.130;2023-09-07T08:54:33;24.30;93.50
11908;DHT22;6014;47.690;9.130;2023-09-07T08:57:05;24.70;92.60
11908;DHT22;6014;47.690;9.130;2023-09-07T08:59:36;24.80;91.90
11908;DHT22;6014;47.690;9.130;2023-09-07T09:02:08;24.60;92.50
11908;DHT22;6014;47.690;9.130;2023-09-07T09:04:38;25.10;93.20
11908;DHT22;6014;47.690;9.130;2023-09-07T09:07:08;25.40;90.40
11908;DHT22;6014;47.690;9.130;2023-09-07T09:09:38;25.30;91.40
11908;DHT22;6014;47.690;9.130;2023-09-07T09:12:09;24.40;91.20
11908;DHT22;6014;47.690;9.130;2023-09-07T09:14:43;25.20;92.10
11908;DHT22;6014;47.690;9.130;2023-09-07T09:17:13;25.60;91.90
11908;DHT22;6014;47.690;9.130;2023-09-07T09:19:47;26.00;90.40
11908;DHT22;6014;47.690;9.130;2023-09-07T09:22:17;25.30;89.40
11908;DHT22;6014;47.690;9.130;2023-09-07T09:24:47;25.60;90.00
11908;DHT22;6014;47.690;9.130;2023-09-07T09:27:18;25.10;90.70
11908;DHT22;6014;47.690;9.130;2023-09-07T09:29:50;24.90;89.90
11908;DHT22;6014;47.690;9.130;2023-09-07T09:32:19;24.90;90.00
11908;DHT22;6014;47.690;9.130;2023-09-07T09:34:48;25.50;88.90
11908;DHT22;6014;47.690;9.130;2023-09-07T09:37:20;26.00;86.80
11908;DHT22;6014;47.690;9.130;2023-09-07T09:39:51;25.90;86.90
11908;DHT22;6014;47.690;9.130;2023-09-07T09:42:23;26.30;88.50
11908;DHT22;6014;47.690;9.130;2023-09-07T09:44:53;26.70;84.00
11908;DHT22;6014;47.690;9.130;2023-09-07T09:47:25;26.50;83.20
11908;DHT22;6014;47.690;9.130;2023-09-07T09:49:55;26.80;80.90
11908;DHT22;6014;47.690;9.130;2023-09-07T09:52:25;26.70;82.70
11908;DHT22;6014;47.690;9.130;2023-09-07T09:54:57;27.00;82.10
11908;DHT22;6014;47.690;9.130;2023-09-07T09:57:27;27.30;81.90
11908;DHT22;6014;47.690;9.130;2023-09-07T09:59:58;27.30;77.30
11908;DHT22;6014;47.690;9.130;2023-09-07T10:02:30;27.00;77.00
11908;DHT22;6014;47.690;9.130;2023-09-07T10:05:00;26.90;77.80
11908;DHT22;6014;47.690;9.130;2023-09-07T10:07:42;26.60;79.60
11908;DHT22;6014;47.690;9.130;2023-09-07T10:10:12;26.90;77.90
11908;DHT22;6014;47.690;9.130;2023-09-07T10:12:43;27.30;76.20
11908;DHT22;6014;47.690;9.130;2023-09-07T10:15:22;27.40;75.60
11908;DHT22;6014;47.690;9.130;2023-09-07T10:18:03;27.20;76.40
11908;DHT22;6014;47.690;9.130;2023-09-07T10:20:46;27.30;75.70
11908;DHT22;6014;47.690;9.130;2023-09-07T10:23:17;27.30;75.50
11908;DHT22;6014;47.690;9.130;2023-09-07T10:25:49;27.10;76.90
11908;DHT22;6014;47.690;9.130;2023-09-07T10:28:26;27.30;75.70
11908;DHT22;6014;47.690;9.130;2023-09-07T10:31:00;28.20;73.40
11908;DHT22;6014;47.690;9.130;2023-09-07T10:33:31;27.80;72.60
11908;DHT22;6014;47.690;9.130;2023-09-07T10:36:03;27.10;73.50
11908;DHT22;6014;47.690;9.130;2023-09-07T10:38:32;27.40;74.10
11908;DHT22;6014;47.690;9.130;2023-09-07T10:41:10;27.50;75.60
11908;DHT22;6014;47.690;9.130;2023-09-07T10:43:48;26.80;76.20
11908;DHT22;6014;47.690;9.130;2023-09-07T10:46:18;26.70;75.20
11908;DHT22;6014;47.690;9.130;2023-09-07T10:48:50;26.60;76.20
11908;DHT22;6014;47.690;9.130;2023-09-07T10:51:19;27.20;77.00
11908;DHT22;6014;47.690;9.130;2023-09-07T10:53:48;28.00;73.10
11908;DHT22;6014;47.690;9.130;2023-09-07T10:56:17;27.70;71.70
11908;DHT22;6014;47.690;9.130;2023-09-07T10:58:47;28.00;72.40
11908;DHT22;6014;47.690;9.130;2023-09-07T11:01:20;28.30;70.70
11908;DHT22;6014;47.690;9.130;2023-09-07T11:03:48;29.50;68.20
11908;DHT22;6014;47.690;9.130;2023-09-07T11:06:20;29.10;68.40
11908;DHT22;6014;47.690;9.130;2023-09-07T11:09:12;29.10;66.40
11908;DHT22;6014;47.690;9.130;2023-09-07T11:11:46;28.70;68.50
11908;DHT22;6014;47.690;9.130;2023-09-07T11:14:29;28.60;68.90
11908;DHT22;6014;47.690;9.130;2023-09-07T11:16:58;29.20;64.30
11908;DHT22;6014;47.690;9.130;2023-09-07T11:19:26;28.20;64.50
11908;DHT22;6014;47.690;9.130;2023-09-07T11:21:54;28.70;64.70
11908;DHT22;6014;47.690;9.130;2023-09-07T11:24:23;29.10;64.80
11908;DHT22;6014;47.690;9.130;2023-09-07T11:26:53;29.20;64.00
11908;DHT22;6014;47.690;9.130;2023-09-07T11:29:23;29.70;63.60
11908;DHT22;6014;47.690;9.130;2023-09-07T11:31:52;29.60;61.60
11908;DHT22;6014;47.690;9.130;2023-09-07T11:34:21;29.50;62.10
11908;DHT22;6014;47.690;9.130;2023-09-07T11:36:49;28.80;65.10
11908;DHT22;6014;47.690;9.130;2023-09-07T11:39:18;28.60;65.00
11908;DHT22;6014;47.690;9.130;2023-09-07T11:41:48;28.70;65.90
11908;DHT22;6014;47.690;9.130;2023-09-07T11:44:16;29.50;61.80
11908;DHT22;6014;47.690;9.130;2023-09-07T11:46:46;29.70;61.60
11908;DHT22;6014;47.690;9.130;2023-09-07T11:49:15;29.60;64.00
11908;DHT22;6014;47.690;9.130;2023-09-07T11:51:47;30.50;59.30
11908;DHT22;6014;47.690;9.130;2023-09-07T11:54:17;30.80;59.50
11908;DHT22;6014;47.690;9.130;2023-09-07T11:56:46;30.80;59.40
11908;DHT22;6014;47.690;9.130;2023-09-07T11:59:15;30.70;59.20
11908;DHT22;6014;47.690;9.130;2023-09-07T12:01:51;30.20;59.60
11908;DHT22;6014;47.690;9.130;2023-09-07T12:04:24;30.60;59.10
11908;DHT22;6014;47.690;9.130;2023-09-07T12:06:53;30.10;58.20
11908;DHT22;6014;47.690;9.130;2023-09-07T12:09:21;29.10;58.90
11908;DHT22;6014;47.690;9.130;2023-09-07T12:11:50;29.10;61.10
11908;DHT22;6014;47.690;9.130;2023-09-07T12:14:18;29.80;59.60
11908;DHT22;6014;47.690;9.130;2023-09-07T12:16:55;30.60;58.60
11908;DHT22;6014;47.690;9.130;2023-09-07T12:19:24;30.80;59.20
11908;DHT22;6014;47.690;9.130;2023-09-07T12:21:54;31.10;58.50
11908;DHT22;6014;47.690;9.130;2023-09-07T12:24:22;31.20;56.00
11908;DHT22;6014;47.690;9.130;2023-09-07T12:26:51;31.40;57.70
11908;DHT22;6014;47.690;9.130;2023-09-07T12:29:21;31.00;56.40
11908;DHT22;6014;47.690;9.130;2023-09-07T12:31:49;30.50;58.00
11908;DHT22;6014;47.690;9.130;2023-09-07T12:34:21;30.50;56.90
11908;DHT22;6014;47.690;9.130;2023-09-07T12:36:49;30.70;57.40
11908;DHT22;6014;47.690;9.130;2023-09-07T12:39:17;30.80;56.30
11908;DHT22;6014;47.690;9.130;2023-09-07T12:41:46;30.90;56.90
11908;DHT22;6014;47.690;9.130;2023-09-07T12:44:14;31.40;54.30
11908;DHT22;6014;47.690;9.130;2023-09-07T12:46:45;30.60;55.50
11908;DHT22;6014;47.690;9.130;2023-09-07T12:49:13;31.20;56.50
11908;DHT22;6014;47.690;9.130;2023-09-07T12:51:46;30.40;56.40
11908;DHT22;6014;47.690;9.130;2023-09-07T12:54:14;30.80;57.50
11908;DHT22;6014;47.690;9.130;2023-09-07T12:56:44;31.00;55.30
11908;DHT22;6014;47.690;9.130;2023-09-07T12:59:14;31.10;56.50
11908;DHT22;6014;47.690;9.130;2023-09-07T13:01:42;31.10;55.80
11908;DHT22;6014;47.690;9.130;2023-09-07T13:04:11;31.10;56.00
11908;DHT22;6014;47.690;9.130;2023-09-07T13:06:40;31.30;56.60
11908;DHT22;6014;47.690;9.130;2023-09-07T13:09:10;31.10;56.40
11908;DHT22;6014;47.690;9.130;2023-09-07T13:11:38;31.20;56.20
11908;DHT22;6014;47.690;9.130;2023-09-07T13:14:08;31.40;56.00
11908;DHT22;6014;47.690;9.130;2023-09-07T13:16:38;31.20;55.40
11908;DHT22;6014;47.690;9.130;2023-09-07T13:19:08;31.30;54.80
11908;DHT22;6014;47.690;9.130;2023-09-07T13:21:37;31.30;53.60
11908;DHT22;6014;47.690;9.130;2023-09-07T13:24:05;30.60;54.40
11908;DHT22;6014;47.690;9.130;2023-09-07T13:26:37;30.60;54.90
11908;DHT22;6014;47.690;9.130;2023-09-07T13:29:05;30.20;56.10
11908;DHT22;6014;47.690;9.130;2023-09-07T13:31:34;30.70;55.40
11908;DHT22;6014;47.690;9.130;2023-09-07T13:34:03;31.40;54.50
11908;DHT22;6014;47.690;9.130;2023-09-07T13:36:32;31.70;55.40
11908;DHT22;6014;47.690;9.130;2023-09-07T13:39:00;31.40;52.20
11908;DHT22;6014;47.690;9.130;2023-09-07T13:41:29;31.50;52.80
11908;DHT22;6014;47.690;9.130;2023-09-07T13:44:01;31.70;52.70
11908;DHT22;6014;47.690;9.130;2023-09-07T13:46:31;31.90;52.50
11908;DHT22;6014;47.690;9.130;2023-09-07T13:49:03;31.40;51.60
11908;DHT22;6014;47.690;9.130;2023-09-07T13:51:33;31.60;52.20
11908;DHT22;6014;47.690;9.130;2023-09-07T13:54:05;31.80;52.80
11908;DHT22;6014;47.690;9.130;2023-09-07T13:56:37;31.60;51.10
11908;DHT22;6014;47.690;9.130;2023-09-07T13:59:08;31.60;51.20
11908;DHT22;6014;47.690;9.130;2023-09-07T14:01:41;31.60;52.20
11908;DHT22;6014;47.690;9.130;2023-09-07T14:04:11;31.80;51.60
11908;DHT22;6014;47.690;9.130;2023-09-07T14:06:43;32.00;52.00
11908;DHT22;6014;47.690;9.130;2023-09-07T14:09:12;31.20;50.20
11908;DHT22;6014;47.690;9.130;2023-09-07T14:11:42;31.40;51.50
11908;DHT22;6014;47.690;9.130;2023-09-07T14:14:12;31.40;50.30
11908;DHT22;6014;47.690;9.130;2023-09-07T14:16:41;31.50;50.40
11908;DHT22;6014;47.690;9.130;2023-09-07T14:19:10;30.60;51.70
11908;DHT22;6014;47.690;9.130;2023-09-07T14:21:38;30.60;53.50
11908;DHT22;6014;47.690;9.130;2023-09-07T14:24:07;31.20;53.10
11908;DHT22;6014;47.690;9.130;2023-09-07T14:26:35;31.50;51.20
11908;DHT22;6014;47.690;9.130;2023-09-07T14:29:04;31.80;50.90
11908;DHT22;6014;47.690;9.130;2023-09-07T14:31:35;31.20;50.90
11908;DHT22;6014;47.690;9.130;2023-09-07T14:34:05;30.90;51.30
11908;DHT22;6014;47.690;9.130;2023-09-07T14:36:39;30.10;52.30
11908;DHT22;6014;47.690;9.130;2023-09-07T14:39:08;30.70;53.60
11908;DHT22;6014;47.690;9.130;2023-09-07T14:41:37;30.70;52.90
11908;DHT22;6014;47.690;9.130;2023-09-07T14:44:07;30.30;55.00
11908;DHT22;6014;47.690;9.130;2023-09-07T14:46:38;30.10;54.60
11908;DHT22;6014;47.690;9.130;2023-09-07T14:49:08;30.10;53.80
11908;DHT22;6014;47.690;9.130;2023-09-07T14:51:36;30.40;54.00
11908;DHT22;6014;47.690;9.130;2023-09-07T14:54:05;30.20;53.50
11908;DHT22;6014;47.690;9.130;2023-09-07T14:56:33;30.20;54.60
11908;DHT22;6014;47.690;9.130;2023-09-07T14:59:04;30.10;54.80
11908;DHT22;6014;47.690;9.130;2023-09-07T15:01:33;30.10;54.70
11908;DHT22;6014;47.690;9.130;2023-09-07T15:04:04;30.20;54.50
11908;DHT22;6014;47.690;9.130;2023-09-07T15:06:34;30.60;54.70
11908;DHT22;6014;47.690;9.130;2023-09-07T15:09:04;31.20;53.40
11908;DHT22;6014;47.690;9.130;2023-09-07T15:11:34;31.30;53.00
11908;DHT22;6014;47.690;9.130;2023-09-07T15:14:03;31.60;52.10
11908;DHT22;6014;47.690;9.130;2023-09-07T15:16:35;31.80;52.90
11908;DHT22;6014;47.690;9.130;2023-09-07T15:19:05;32.70;51.00
11908;DHT22;6014;47.690;9.130;2023-09-07T15:21:35;33.50;49.50
11908;DHT22;6014;47.690;9.130;2023-09-07T15:24:08;32.50;49.60
11908;DHT22;6014;47.690;9.130;2023-09-07T15:26:41;33.20;49.60
11908;DHT22;6014;47.690;9.130;2023-09-07T15:29:11;33.00;48.30
11908;DHT22;6014;47.690;9.130;2023-09-07T15:31:40;32.50;49.90
11908;DHT22;6014;47.690;9.130;2023-09-07T15:34:10;32.50;49.50
11908;DHT22;6014;47.690;9.130;2023-09-07T15:36:40;32.50;49.20
11908;DHT22;6014;47.690;9.130;2023-09-07T15:39:09;33.00;48.60
11908;DHT22;6014;47.690;9.130;2023-09-07T15:41:37;31.90;48.70
11908;DHT22;6014;47.690;9.130;2023-09-07T15:44:06;31.80;50.40
11908;DHT22;6014;47.690;9.130;2023-09-07T15:46:35;31.80;50.00
11908;DHT22;6014;47.690;9.130;2023-09-07T15:49:04;31.80;49.30
11908;DHT22;6014;47.690;9.130;2023-09-07T15:51:36;31.90;49.50
11908;DHT22;6014;47.690;9.130;2023-09-07T15:54:05;31.50;49.80
11908;DHT22;6014;47.690;9.130;2023-09-07T15:56:35;31.90;49.20
11908;DHT22;6014;47.690;9.130;2023-09-07T15:59:05;32.70;48.40
11908;DHT22;6014;47.690;9.130;2023-09-07T16:01:34;32.20;49.90
11908;DHT22;6014;47.690;9.130;2023-09-07T16:04:04;31.60;50.70